Airfield :
LOGIN :

Register | Disclaimer

   EN    FR    IT 

 










Legend :    VFR   Marginal VFR   IFR   Intensive IFR   Very Intensive IFR
Visi :
Ceiling :
>= 8 km
>= 3000ft
5 to 8 km
1000 to 3000 ft
1500m to 5 km
500 to 1000 ft
800 to 1500m
200 to 500 ft
< 800m
< 200 ft
Symbols :   Thunderstorms  Fog  Heavy snow  Heavy precipitations  Wind > 20 kt
SIGMETs :     Misc.  Thunderstorms  Icing  Turbulence  Mountain Waves  Volcanic Ashes






- Airport Elevation : 313 ft
- IATA code : LEH


LFOH - Le Havre Octeville

CURRENT METAR :
  • 120530Z AUTO 12006KT CAVOK 21/17 Q1013 NOSIG

EXPIRED METARs :
  • 120500Z AUTO 11007KT CAVOK 21/18 Q1013
  • 120430Z AUTO 11006KT CAVOK 20/17 Q1013
  • 120400Z AUTO 12006KT CAVOK 21/18 Q1013
  • 120330Z AUTO 11007KT CAVOK 21/18 Q1013

TAF TAF LFOH
Valid from the 12 at 06:00 until the 13 at 06:00 UTC


120500Z 1206/1306 12007KT CAVOK
TEMPO 1210/1224 VRB20G35KT 3000 TSRAGS BKN070CB
BECMG 1303/1306 22010KT OVC011
ATIS : +33 2 35 54 64 93



MET'MAP, your aeronautical weather chart ! - Copyright ORBIFLY December 2007 - Disclaimer

ORBIFLY MET'MAP TEAM :

Programming & Development : Alexandra Zaïnal
Concept & original design : Baudouin d'Aumeries
Assistance for programming : Marc-Olivier Méhu
Technical & hardware support : Manuel Goepfert

Contact : metmap@orbifly.com




SOURCES & CREDITS :

   NOAA